Terminal Aerodrome Forecast
Issued by NWS Sioux Falls, SD

Home | Current Version | Previous Version | Graphics & Text | Print | Product List | Glossary On
Versions: 1 2 3 4 5 6 7 8 9 10 11 12 13
000
FTUS43 KFSD 271100
TAFHON
TAF
KHON 271140Z 2712/2812 09005KT P6SM BKN050
     FM271600 13007KT P6SM BKN150
     FM280000 15007KT P6SM BKN040
     FM280600 11007KT P6SM -SHRA BKN020=

USA.gov is the U.S. government's official web portal to all federal, state and local government web resources and services.